createdAt,value
2018-08-28T00:00:57.681Z,17.30
2018-08-28T00:03:25.156Z,17.30
2018-08-28T00:05:52.646Z,17.30
2018-08-28T00:08:20.117Z,17.20
2018-08-28T00:10:47.586Z,17.20
2018-08-28T00:13:15.045Z,17.20
2018-08-28T00:15:42.496Z,17.20
2018-08-28T00:18:09.953Z,17.20
2018-08-28T00:20:38.180Z,17.10
2018-08-28T00:23:06.411Z,17.10
2018-08-28T00:25:34.662Z,17.10
2018-08-28T00:28:02.151Z,17.10
2018-08-28T00:30:29.601Z,17.10
2018-08-28T00:32:57.052Z,17.10
2018-08-28T00:35:24.496Z,17.10
2018-08-28T00:37:51.956Z,17.10
2018-08-28T00:40:20.194Z,17.10
2018-08-28T00:42:47.636Z,17.00
2018-08-28T00:45:15.138Z,17.10
2018-08-28T00:47:42.608Z,17.10
2018-08-28T00:50:10.073Z,17.10
2018-08-28T00:52:37.546Z,17.00
2018-08-28T00:55:05.761Z,17.00
2018-08-28T00:57:33.205Z,17.00
2018-08-28T01:00:00.675Z,17.00
2018-08-28T01:02:28.113Z,17.00
2018-08-28T01:04:56.341Z,17.00
2018-08-28T01:07:23.785Z,16.90
2018-08-28T01:09:51.265Z,17.00
2018-08-28T01:12:18.708Z,17.00
2018-08-28T01:14:46.275Z,17.00
2018-08-28T01:17:13.632Z,17.00
2018-08-28T01:19:41.131Z,17.00
2018-08-28T01:22:08.599Z,17.00
2018-08-28T01:24:36.051Z,17.00
2018-08-28T01:27:03.506Z,17.00
2018-08-28T01:29:30.989Z,17.00
2018-08-28T01:31:59.220Z,16.90
2018-08-28T01:34:27.418Z,17.00
2018-08-28T01:36:54.868Z,17.00
2018-08-28T01:39:22.318Z,17.00
2018-08-28T01:41:50.560Z,17.00
2018-08-28T01:44:18.025Z,16.90
2018-08-28T01:46:46.426Z,17.00
2018-08-28T01:49:14.653Z,16.90
2018-08-28T01:51:43.246Z,16.80
2018-08-28T01:54:10.712Z,16.80
2018-08-28T01:56:38.180Z,16.80
2018-08-28T01:59:05.644Z,16.70
2018-08-28T02:01:34.218Z,16.70
2018-08-28T02:04:01.701Z,16.70
2018-08-28T02:06:29.164Z,16.80
2018-08-28T02:08:57.400Z,16.70
2018-08-28T02:11:24.858Z,16.70
2018-08-28T02:13:52.345Z,16.70
2018-08-28T02:16:19.801Z,16.70
2018-08-28T02:18:47.280Z,16.70
2018-08-28T02:21:14.731Z,16.70
2018-08-28T02:23:42.194Z,16.60
2018-08-28T02:26:09.682Z,16.70
2018-08-28T02:28:37.185Z,16.70
2018-08-28T02:31:05.400Z,16.70
2018-08-28T02:33:33.660Z,16.60
2018-08-28T02:36:01.094Z,16.60
2018-08-28T02:38:28.553Z,16.60
2018-08-28T02:40:56.013Z,16.60
2018-08-28T02:43:23.478Z,16.60
2018-08-28T02:45:50.934Z,16.60
2018-08-28T02:48:18.384Z,16.60
2018-08-28T02:50:46.611Z,16.60
2018-08-28T02:53:14.834Z,16.60
2018-08-28T02:55:42.280Z,16.60
2018-08-28T02:58:09.750Z,16.70
2018-08-28T03:00:37.221Z,16.60
2018-08-28T03:03:04.722Z,16.60
2018-08-28T03:05:32.142Z,16.60
2018-08-28T03:07:59.595Z,16.60
2018-08-28T03:10:27.137Z,16.60
2018-08-28T03:12:55.342Z,16.70
2018-08-28T03:15:22.835Z,16.60
2018-08-28T03:17:50.260Z,16.60
2018-08-28T03:20:17.718Z,16.60
2018-08-28T03:22:45.169Z,16.60
2018-08-28T03:25:12.622Z,16.70
2018-08-28T03:27:40.866Z,16.70
2018-08-28T03:30:08.399Z,16.60
2018-08-28T03:32:35.801Z,16.70
2018-08-28T03:35:03.269Z,16.60
2018-08-28T03:37:30.717Z,16.60
2018-08-28T03:39:58.193Z,16.60
2018-08-28T03:42:25.633Z,16.60
2018-08-28T03:44:53.176Z,16.70
2018-08-28T03:47:20.560Z,16.70
2018-08-28T03:49:48.028Z,16.70
2018-08-28T03:52:15.486Z,16.60
2018-08-28T03:54:42.952Z,16.60
2018-08-28T03:57:10.406Z,16.70
2018-08-28T03:59:37.861Z,16.60
2018-08-28T04:02:05.306Z,16.70
2018-08-28T04:04:32.748Z,16.70
2018-08-28T04:07:00.988Z,16.70
2018-08-28T04:09:28.461Z,16.60
2018-08-28T04:11:56.705Z,16.70
2018-08-28T04:14:24.166Z,16.70
2018-08-28T04:16:51.681Z,16.60
2018-08-28T04:19:19.097Z,16.60
2018-08-28T04:21:46.541Z,16.60
2018-08-28T04:24:14.009Z,16.60
2018-08-28T04:26:41.517Z,16.60
2018-08-28T04:29:09.000Z,16.60
2018-08-28T04:31:36.465Z,16.60
2018-08-28T04:34:04.705Z,16.60
2018-08-28T04:36:32.177Z,16.60
2018-08-28T04:38:59.626Z,16.60
2018-08-28T04:41:27.080Z,16.60
2018-08-28T04:43:54.552Z,16.60
2018-08-28T04:46:22.100Z,16.60
2018-08-28T04:48:49.552Z,16.60
2018-08-28T04:51:16.998Z,16.60
2018-08-28T04:53:45.226Z,16.60
2018-08-28T04:56:12.693Z,16.60
2018-08-28T04:58:41.211Z,16.50
2018-08-28T05:01:08.689Z,16.50
2018-08-28T05:03:36.957Z,16.50
2018-08-28T05:06:05.177Z,16.50
2018-08-28T05:08:32.649Z,16.50
2018-08-28T05:11:00.098Z,16.60
2018-08-28T05:13:27.549Z,16.60
2018-08-28T05:15:55.084Z,16.60
2018-08-28T05:18:22.487Z,16.60
2018-08-28T05:20:49.940Z,16.60
2018-08-28T05:23:17.403Z,16.60
2018-08-28T05:25:45.404Z,16.70
2018-08-28T05:28:12.874Z,16.70
2018-08-28T05:30:40.333Z,16.70
2018-08-28T05:33:07.784Z,16.70
2018-08-28T05:35:35.241Z,16.70
2018-08-28T05:38:02.728Z,16.70
2018-08-28T05:40:30.166Z,16.70
2018-08-28T05:42:57.629Z,16.60
2018-08-28T05:45:25.075Z,16.60
2018-08-28T05:47:52.538Z,16.60
2018-08-28T05:50:20.035Z,16.60
2018-08-28T05:52:48.225Z,16.60
2018-08-28T05:55:15.680Z,16.70
2018-08-28T05:57:43.133Z,16.70
2018-08-28T06:00:10.585Z,16.70
2018-08-28T06:02:38.043Z,16.70
2018-08-28T06:05:05.499Z,16.80
2018-08-28T06:07:32.968Z,16.80
2018-08-28T06:10:00.434Z,16.80
2018-08-28T06:12:27.896Z,16.80
2018-08-28T06:14:55.351Z,16.80
2018-08-28T06:17:22.835Z,16.90
2018-08-28T06:19:50.297Z,16.80
2018-08-28T06:22:17.753Z,16.90
2018-08-28T06:24:45.218Z,16.90
2018-08-28T06:27:12.665Z,16.90
2018-08-28T06:29:40.135Z,17.00
2018-08-28T06:32:07.587Z,17.00
2018-08-28T06:34:35.040Z,17.00
2018-08-28T06:37:03.259Z,17.00
2018-08-28T06:39:30.707Z,17.00
2018-08-28T06:41:58.388Z,17.10
2018-08-28T06:44:25.851Z,17.10
2018-08-28T06:46:53.285Z,17.10
2018-08-28T06:49:20.758Z,17.10
2018-08-28T06:51:48.222Z,17.10
2018-08-28T06:54:16.198Z,17.10
2018-08-28T06:56:43.707Z,17.20
2018-08-28T06:59:11.120Z,17.20
2018-08-28T07:01:38.590Z,17.20
2018-08-28T07:04:06.044Z,17.30
2018-08-28T07:06:33.506Z,17.30
2018-08-28T07:09:00.961Z,17.30
2018-08-28T07:11:28.416Z,17.40
2018-08-28T07:13:56.634Z,17.30
2018-08-28T07:16:24.093Z,17.30
2018-08-28T07:18:51.758Z,17.30
2018-08-28T07:21:19.053Z,17.30
2018-08-28T07:23:46.519Z,17.30
2018-08-28T07:26:13.978Z,17.30
2018-08-28T07:28:41.441Z,17.40
2018-08-28T07:31:08.918Z,17.40
2018-08-28T07:33:36.365Z,17.40
2018-08-28T07:36:03.815Z,17.40
2018-08-28T07:38:31.272Z,17.30
2018-08-28T07:40:58.785Z,17.30
2018-08-28T07:43:26.225Z,17.30
2018-08-28T07:45:53.750Z,17.30
2018-08-28T07:48:21.269Z,17.30
2018-08-28T07:50:48.660Z,17.20
2018-08-28T07:53:16.121Z,17.20
2018-08-28T07:55:43.602Z,17.30
2018-08-28T07:58:11.061Z,17.20
2018-08-28T08:00:38.493Z,17.30
2018-08-28T08:03:05.966Z,17.20
2018-08-28T08:05:33.418Z,17.30
2018-08-28T08:08:01.649Z,17.30
2018-08-28T08:10:29.136Z,17.30
2018-08-28T08:12:56.577Z,17.30
2018-08-28T08:15:24.056Z,17.40
2018-08-28T08:17:51.509Z,17.40
2018-08-28T08:20:18.969Z,17.50
2018-08-28T08:22:46.421Z,17.50
2018-08-28T08:25:13.893Z,17.50
2018-08-28T08:27:41.362Z,17.50
2018-08-28T08:30:08.832Z,17.60
2018-08-28T08:32:36.293Z,17.60
2018-08-28T08:35:03.733Z,17.60
2018-08-28T08:37:31.219Z,17.60
2018-08-28T08:39:58.731Z,17.70
2018-08-28T08:42:26.181Z,17.80
2018-08-28T08:44:54.405Z,17.80
2018-08-28T08:47:21.869Z,17.80
2018-08-28T08:49:49.372Z,17.80
2018-08-28T08:52:17.625Z,17.80
2018-08-28T08:54:45.163Z,17.80
2018-08-28T08:57:12.662Z,17.80
2018-08-28T08:59:40.025Z,17.90
2018-08-28T09:02:07.488Z,17.90
2018-08-28T09:04:34.931Z,18.00
2018-08-28T09:07:02.400Z,18.00
2018-08-28T09:09:29.977Z,18.10
2018-08-28T09:11:57.468Z,18.00
2018-08-28T09:14:25.691Z,18.00
2018-08-28T09:16:53.141Z,18.00
2018-08-28T09:19:20.682Z,18.00
2018-08-28T09:21:48.088Z,18.20
2018-08-28T09:24:15.574Z,18.30
2018-08-28T09:26:43.030Z,18.40
2018-08-28T09:29:10.485Z,18.50
2018-08-28T09:31:38.098Z,18.40
2018-08-28T09:34:05.483Z,18.50
2018-08-28T09:36:32.990Z,18.50
2018-08-28T09:39:01.195Z,18.60
2018-08-28T09:41:30.193Z,18.60
2018-08-28T09:43:59.135Z,18.70
2018-08-28T09:46:26.508Z,18.70
2018-08-28T09:48:53.963Z,18.80
2018-08-28T09:51:21.444Z,19.00
2018-08-28T09:53:48.897Z,19.20
2018-08-28T09:56:16.354Z,19.20
2018-08-28T09:58:43.817Z,19.40
2018-08-28T10:01:11.261Z,19.40
2018-08-28T10:03:38.731Z,19.50
2018-08-28T10:06:06.208Z,19.70
2018-08-28T10:08:34.785Z,19.70
2018-08-28T10:11:02.308Z,19.70
2018-08-28T10:13:30.830Z,20.30
2018-08-28T10:15:58.297Z,20.30
2018-08-28T10:18:25.754Z,20.00
2018-08-28T10:20:53.218Z,20.00
2018-08-28T10:23:20.665Z,19.90
2018-08-28T10:25:48.154Z,19.80
2018-08-28T10:28:15.616Z,19.90
2018-08-28T10:30:43.068Z,20.00
2018-08-28T10:33:11.653Z,20.60
2018-08-28T10:35:39.116Z,20.60
2018-08-28T10:38:06.569Z,20.60
2018-08-28T10:40:35.163Z,20.90
2018-08-28T10:43:02.620Z,20.80
2018-08-28T10:45:30.079Z,20.80
2018-08-28T10:47:57.554Z,20.60
2018-08-28T10:50:25.005Z,20.50
2018-08-28T10:52:52.526Z,20.70
2018-08-28T10:55:19.947Z,20.70
2018-08-28T10:57:47.406Z,20.60
2018-08-28T11:00:14.861Z,20.50
2018-08-28T11:02:42.325Z,20.50
2018-08-28T11:05:09.784Z,20.40
2018-08-28T11:07:37.273Z,20.40
2018-08-28T11:10:04.741Z,20.50
2018-08-28T11:12:32.187Z,20.40
2018-08-28T11:14:59.637Z,20.40
2018-08-28T11:17:27.077Z,20.30
2018-08-28T11:19:54.541Z,20.10
2018-08-28T11:22:22.770Z,20.00
2018-08-28T11:24:50.302Z,20.00
2018-08-28T11:27:17.742Z,19.90
2018-08-28T11:29:45.974Z,19.80
2018-08-28T11:32:13.427Z,19.70
2018-08-28T11:34:42.031Z,19.50
2018-08-28T11:37:09.482Z,19.50
2018-08-28T11:39:36.934Z,19.50
2018-08-28T11:42:04.398Z,19.70
2018-08-28T11:44:31.847Z,19.70
2018-08-28T11:46:59.326Z,19.60
2018-08-28T11:49:26.781Z,19.50
2018-08-28T11:51:54.253Z,19.60
2018-08-28T11:54:22.433Z,19.60
2018-08-28T11:56:49.902Z,19.60
2018-08-28T11:59:17.405Z,19.60
2018-08-28T12:01:44.917Z,19.60
2018-08-28T12:04:12.373Z,19.60
2018-08-28T12:06:39.836Z,19.60
2018-08-28T12:09:07.331Z,19.60
2018-08-28T12:11:34.797Z,19.60
2018-08-28T12:14:02.269Z,19.50
2018-08-28T12:16:29.734Z,19.60
2018-08-28T12:18:57.182Z,19.60
2018-08-28T12:21:24.650Z,19.70
2018-08-28T12:23:52.131Z,19.70
2018-08-28T12:26:19.582Z,19.70
2018-08-28T12:28:47.048Z,19.70
2018-08-28T12:31:14.496Z,19.70
2018-08-28T12:33:41.958Z,19.70
2018-08-28T12:36:09.417Z,19.70
2018-08-28T12:38:36.890Z,19.70
2018-08-28T12:41:04.365Z,19.70
2018-08-28T12:43:31.825Z,19.60
2018-08-28T12:45:59.269Z,19.60
2018-08-28T12:48:26.720Z,19.60
2018-08-28T12:50:54.161Z,19.60
2018-08-28T12:53:21.626Z,19.60
2018-08-28T12:55:49.085Z,19.50
2018-08-28T12:58:16.541Z,19.50
2018-08-28T13:00:44.184Z,19.50
2018-08-28T13:03:11.457Z,19.60
2018-08-28T13:05:38.910Z,19.60
2018-08-28T13:08:07.140Z,19.50
2018-08-28T13:10:34.609Z,19.50
2018-08-28T13:13:02.063Z,19.60
2018-08-28T13:15:29.551Z,19.60
2018-08-28T13:17:56.953Z,19.60
2018-08-28T13:20:24.432Z,19.60
2018-08-28T13:22:51.885Z,19.70
2018-08-28T13:25:20.139Z,19.70
2018-08-28T13:27:48.978Z,19.70
2018-08-28T13:30:16.441Z,19.70
2018-08-28T13:32:44.223Z,19.70
2018-08-28T13:35:11.663Z,19.70
2018-08-28T13:37:39.124Z,19.70
2018-08-28T13:40:06.587Z,19.70
2018-08-28T13:42:34.049Z,19.80
2018-08-28T13:45:01.526Z,19.80
2018-08-28T13:47:29.009Z,19.90
2018-08-28T13:49:56.479Z,19.90
2018-08-28T13:52:23.955Z,20.00
2018-08-28T13:54:52.542Z,20.50
2018-08-28T13:57:20.119Z,20.40
2018-08-28T13:59:47.632Z,20.30
2018-08-28T14:02:15.022Z,20.40
2018-08-28T14:04:42.500Z,20.40
2018-08-28T14:07:09.958Z,20.40
2018-08-28T14:09:37.527Z,20.40
2018-08-28T14:12:04.974Z,20.30
2018-08-28T14:14:32.496Z,20.30
2018-08-28T14:16:59.913Z,20.30
2018-08-28T14:19:27.366Z,20.20
2018-08-28T14:21:54.818Z,20.20
2018-08-28T14:24:22.269Z,20.20
2018-08-28T14:26:49.732Z,20.20
2018-08-28T14:29:17.283Z,20.10
2018-08-28T14:31:44.657Z,20.10
2018-08-28T14:34:12.124Z,20.20
2018-08-28T14:36:39.561Z,20.20
2018-08-28T14:39:07.035Z,20.20
2018-08-28T14:41:34.485Z,20.20
2018-08-28T14:44:01.951Z,20.20
2018-08-28T14:46:29.465Z,20.10
2018-08-28T14:48:56.976Z,20.20
2018-08-28T14:51:24.483Z,20.20
2018-08-28T14:53:51.961Z,20.20
2018-08-28T14:56:19.474Z,20.20
2018-08-28T14:58:46.897Z,20.20
2018-08-28T15:01:14.331Z,20.20
2018-08-28T15:03:41.801Z,20.20
2018-08-28T15:06:09.281Z,20.30
2018-08-28T15:08:36.734Z,20.30
2018-08-28T15:11:04.185Z,20.30
2018-08-28T15:13:31.630Z,20.30
2018-08-28T15:15:59.097Z,20.30
2018-08-28T15:18:26.566Z,20.30
2018-08-28T15:20:54.062Z,20.30
2018-08-28T15:23:21.468Z,20.40
2018-08-28T15:25:48.918Z,20.40
2018-08-28T15:28:16.376Z,20.40
2018-08-28T15:30:44.596Z,20.40
2018-08-28T15:33:12.080Z,20.40
2018-08-28T15:35:39.551Z,20.40
2018-08-28T15:38:07.015Z,20.40
2018-08-28T15:40:35.250Z,20.50
2018-08-28T15:43:02.775Z,20.50
2018-08-28T15:45:30.243Z,20.50
2018-08-28T15:47:59.210Z,20.50
2018-08-28T15:50:26.662Z,20.50
2018-08-28T15:52:54.110Z,20.60
2018-08-28T15:55:21.579Z,20.50
2018-08-28T15:57:49.050Z,20.50
2018-08-28T16:00:16.537Z,20.50
2018-08-28T16:02:44.007Z,20.50
2018-08-28T16:05:12.218Z,20.60
2018-08-28T16:07:39.712Z,20.60
2018-08-28T16:10:07.169Z,20.70
2018-08-28T16:12:34.629Z,20.70
2018-08-28T16:15:02.087Z,20.60
2018-08-28T16:17:29.537Z,20.60
2018-08-28T16:19:57.001Z,20.60
2018-08-28T16:22:26.332Z,20.60
2018-08-28T16:24:57.646Z,20.60
2018-08-28T16:27:25.108Z,20.60
2018-08-28T16:29:55.489Z,20.30
2018-08-28T16:32:22.820Z,20.20
2018-08-28T16:34:50.280Z,20.20
2018-08-28T16:37:17.746Z,20.10
2018-08-28T16:39:46.284Z,20.10
2018-08-28T16:42:14.497Z,20.10
2018-08-28T16:44:41.952Z,20.10
2018-08-28T16:47:09.444Z,20.10
2018-08-28T16:49:36.904Z,20.00
2018-08-28T16:52:04.368Z,20.00
2018-08-28T16:54:31.822Z,20.00
2018-08-28T16:56:59.272Z,20.10
2018-08-28T16:59:26.780Z,20.00
2018-08-28T17:01:54.242Z,20.00
2018-08-28T17:04:21.709Z,20.00
2018-08-28T17:06:49.167Z,20.00
2018-08-28T17:09:16.619Z,19.90
2018-08-28T17:11:44.110Z,20.00
2018-08-28T17:14:12.330Z,19.90
2018-08-28T17:16:39.800Z,19.90
2018-08-28T17:19:07.318Z,19.90
2018-08-28T17:21:34.703Z,19.80
2018-08-28T17:24:02.152Z,19.80
2018-08-28T17:26:30.383Z,19.70
2018-08-28T17:28:57.825Z,19.70
2018-08-28T17:31:25.283Z,19.60
2018-08-28T17:33:53.876Z,19.50
2018-08-28T17:36:22.085Z,19.50
2018-08-28T17:38:49.540Z,19.50
2018-08-28T17:41:17.005Z,19.50
2018-08-28T17:43:44.455Z,19.50
2018-08-28T17:46:11.915Z,19.60
2018-08-28T17:48:40.219Z,19.40
2018-08-28T17:51:08.430Z,19.40
2018-08-28T17:53:35.889Z,19.40
2018-08-28T17:56:03.338Z,19.50
2018-08-28T17:58:31.496Z,19.30
2018-08-28T18:00:58.951Z,19.60
2018-08-28T18:03:27.565Z,19.20
2018-08-28T18:05:55.036Z,19.20
2018-08-28T18:08:22.480Z,19.20
2018-08-28T18:10:50.713Z,19.10
2018-08-28T18:13:18.200Z,19.10
2018-08-28T18:15:45.661Z,19.10
2018-08-28T18:18:13.116Z,19.00
2018-08-28T18:20:40.578Z,18.90
2018-08-28T18:23:10.416Z,18.80
2018-08-28T18:25:38.831Z,18.80
2018-08-28T18:28:06.294Z,18.80
2018-08-28T18:30:33.737Z,18.70
2018-08-28T18:33:01.208Z,18.70
2018-08-28T18:35:28.665Z,18.70
2018-08-28T18:37:56.177Z,18.80
2018-08-28T18:40:23.658Z,19.00
2018-08-28T18:42:51.113Z,19.00
2018-08-28T18:45:18.921Z,18.90
2018-08-28T18:47:46.384Z,18.90
2018-08-28T18:50:13.851Z,18.90
2018-08-28T18:52:41.319Z,18.80
2018-08-28T18:55:08.780Z,18.70
2018-08-28T18:57:36.252Z,18.90
2018-08-28T19:00:03.697Z,18.90
2018-08-28T19:02:32.362Z,18.80
2018-08-28T19:04:59.833Z,18.80
2018-08-28T19:07:27.299Z,18.60
2018-08-28T19:09:54.768Z,18.50
2018-08-28T19:12:23.348Z,18.40
2018-08-28T19:14:50.811Z,18.40
2018-08-28T19:17:18.282Z,18.10
2018-08-28T19:19:45.749Z,18.00
2018-08-28T19:22:13.224Z,17.90
2018-08-28T19:24:40.709Z,17.80
2018-08-28T19:27:08.181Z,18.30
2018-08-28T19:29:36.425Z,18.00
2018-08-28T19:34:34.201Z,17.60
2018-08-28T19:37:01.677Z,17.60
2018-08-28T19:42:04.259Z,17.30
2018-08-28T19:44:31.713Z,17.40
2018-08-28T19:46:59.222Z,17.40
2018-08-28T19:49:26.682Z,17.40
2018-08-28T19:51:54.140Z,17.40
2018-08-28T19:54:22.750Z,17.30
2018-08-28T19:56:51.021Z,17.40
2018-08-28T19:59:18.501Z,17.30
2018-08-28T20:01:46.009Z,17.20
2018-08-28T20:04:13.480Z,17.30
2018-08-28T20:06:41.697Z,17.20
2018-08-28T20:09:10.286Z,17.20
2018-08-28T20:11:37.745Z,17.20
2018-08-28T20:14:05.209Z,17.20
2018-08-28T20:16:32.666Z,17.10
2018-08-28T20:19:00.116Z,17.10
2018-08-28T20:21:28.365Z,16.80
2018-08-28T20:23:55.825Z,16.80
2018-08-28T20:26:23.282Z,17.00
2018-08-28T20:28:50.737Z,17.10
2018-08-28T20:31:18.195Z,17.10
2018-08-28T20:33:46.437Z,17.00
2018-08-28T20:36:13.883Z,16.90
2018-08-28T20:38:42.470Z,16.60
2018-08-28T20:41:09.936Z,16.60
2018-08-28T20:43:37.485Z,16.50
2018-08-28T20:46:04.881Z,16.70
2018-08-28T20:48:32.346Z,16.80
2018-08-28T20:50:59.801Z,16.50
2018-08-28T20:53:27.284Z,16.60
2018-08-28T20:55:54.751Z,16.70
2018-08-28T20:58:22.977Z,16.70
2018-08-28T21:00:50.428Z,16.70
2018-08-28T21:03:17.949Z,16.60
2018-08-28T21:05:46.178Z,16.60
2018-08-28T21:08:13.656Z,16.50
2018-08-28T21:10:41.118Z,16.60
2018-08-28T21:13:08.581Z,16.60
2018-08-28T21:15:36.054Z,16.30
2018-08-28T21:18:04.297Z,16.40
2018-08-28T21:20:31.760Z,16.40
2018-08-28T21:22:59.291Z,16.40
2018-08-28T21:25:26.684Z,16.50
2018-08-28T21:27:54.284Z,16.40
2018-08-28T21:30:21.726Z,16.40
2018-08-28T21:32:49.182Z,16.40
2018-08-28T21:35:16.641Z,16.40
2018-08-28T21:37:44.121Z,16.30
2018-08-28T21:40:11.552Z,16.30
2018-08-28T21:42:39.929Z,16.00
2018-08-28T21:45:08.157Z,16.00
2018-08-28T21:50:04.424Z,15.90
2018-08-28T21:52:31.882Z,16.10
2018-08-28T21:54:59.387Z,16.00
2018-08-28T21:57:27.626Z,16.10
2018-08-28T21:59:55.077Z,16.10
2018-08-28T22:02:22.539Z,16.20
2018-08-28T22:04:50.002Z,16.00
2018-08-28T22:07:18.608Z,15.90
2018-08-28T22:09:46.081Z,15.80
2018-08-28T22:12:13.542Z,16.10
2018-08-28T22:14:41.026Z,15.90
2018-08-28T22:17:09.245Z,15.80
2018-08-28T22:19:36.733Z,15.80
2018-08-28T22:22:04.181Z,15.90
2018-08-28T22:24:31.641Z,15.80
2018-08-28T22:26:59.109Z,16.00
2018-08-28T22:29:26.574Z,16.00
2018-08-28T22:31:54.051Z,15.70
2018-08-28T22:34:21.509Z,15.90
2018-08-28T22:36:48.975Z,16.00
2018-08-28T22:39:17.224Z,15.80
2018-08-28T22:41:44.681Z,15.80
2018-08-28T22:44:12.136Z,15.80
2018-08-28T22:46:39.603Z,15.80
2018-08-28T22:49:07.040Z,15.70
2018-08-28T22:51:35.269Z,15.70
2018-08-28T22:54:02.790Z,15.70
2018-08-28T22:56:30.185Z,15.70
2018-08-28T22:58:57.649Z,15.80
2018-08-28T23:01:25.111Z,15.70
2018-08-28T23:03:52.974Z,15.90
2018-08-28T23:06:20.437Z,15.90
2018-08-28T23:08:47.896Z,15.80
2018-08-28T23:11:15.346Z,15.80
2018-08-28T23:13:43.580Z,15.80
2018-08-28T23:16:11.032Z,15.80
2018-08-28T23:18:38.550Z,15.80
2018-08-28T23:21:06.859Z,15.80
2018-08-28T23:23:34.333Z,15.80
2018-08-28T23:26:01.810Z,15.70
2018-08-28T23:28:29.252Z,15.70
2018-08-28T23:30:56.704Z,15.60
2018-08-28T23:33:25.289Z,15.40
2018-08-28T23:35:52.764Z,15.40
2018-08-28T23:38:20.219Z,15.60
2018-08-28T23:40:47.683Z,15.80
2018-08-28T23:43:15.176Z,15.70
2018-08-28T23:45:42.620Z,15.50
2018-08-28T23:48:10.069Z,15.60
2018-08-28T23:50:37.533Z,15.70
2018-08-28T23:53:04.993Z,15.80
2018-08-28T23:55:32.454Z,15.90
2018-08-28T23:57:59.914Z,15.50
